createdAt,value
2018-03-19T00:02:32.164Z,2.57
2018-03-19T00:07:33.540Z,3.20
2018-03-19T00:12:34.939Z,7.60
2018-03-19T00:17:36.322Z,3.90
2018-03-19T00:22:37.740Z,3.30
2018-03-19T00:27:39.152Z,3.67
2018-03-19T00:32:40.537Z,3.10
2018-03-19T00:37:41.879Z,4.63
2018-03-19T00:42:43.458Z,4.13
2018-03-19T00:47:45.538Z,3.60
2018-03-19T00:52:46.890Z,4.10
2018-03-19T00:57:48.258Z,5.83
2018-03-19T01:02:49.622Z,3.33
2018-03-19T01:07:51.695Z,3.43
2018-03-19T01:12:53.038Z,3.07
2018-03-19T01:17:54.428Z,2.50
2018-03-19T01:22:55.821Z,6.00
2018-03-19T01:27:57.174Z,5.40
2018-03-19T01:32:58.526Z,3.90
2018-03-19T01:37:59.897Z,2.53
2018-03-19T01:43:01.243Z,3.53
2018-03-19T01:48:02.648Z,3.23
2018-03-19T01:53:04.044Z,6.10
2018-03-19T01:58:06.133Z,3.50
2018-03-19T02:03:07.549Z,4.20
2018-03-19T02:08:09.000Z,4.10
2018-03-19T02:13:10.452Z,9.47
2018-03-19T02:18:11.847Z,4.37
2018-03-19T02:23:13.247Z,2.80
2018-03-19T02:28:14.694Z,4.40
2018-03-19T02:33:16.080Z,4.43
2018-03-19T02:38:18.221Z,4.77
2018-03-19T02:43:19.613Z,3.90
2018-03-19T02:48:21.219Z,4.10
2018-03-19T02:53:22.599Z,3.73
2018-03-19T02:58:23.970Z,3.13
2018-03-19T03:03:26.156Z,4.90
2018-03-19T03:08:27.532Z,3.03
2018-03-19T03:13:28.912Z,5.47
2018-03-19T03:18:30.256Z,4.30
2018-03-19T03:23:31.631Z,3.23
2018-03-19T03:28:33.818Z,4.43
2018-03-19T03:33:35.189Z,4.83
2018-03-19T03:38:36.604Z,6.13
2018-03-19T03:43:37.952Z,3.50
2018-03-19T03:48:39.437Z,3.40
2018-03-19T03:53:40.811Z,3.80
2018-03-19T03:58:42.888Z,3.20
2018-03-19T04:03:44.292Z,5.43
2018-03-19T04:08:46.381Z,4.50
2018-03-19T04:13:47.732Z,5.87
2018-03-19T04:18:49.113Z,4.43
2018-03-19T04:23:50.442Z,5.47
2018-03-19T04:28:51.965Z,5.00
2018-03-19T04:33:54.128Z,3.47
2018-03-19T04:38:55.500Z,5.70
2018-03-19T04:43:56.838Z,6.07
2018-03-19T04:48:58.211Z,2.90
2018-03-19T04:53:59.556Z,6.17
2018-03-19T04:59:00.927Z,5.80
2018-03-19T05:04:03.054Z,9.70
2018-03-19T05:09:04.492Z,4.13
2018-03-19T05:14:05.884Z,5.80
2018-03-19T05:19:07.257Z,5.43
2018-03-19T05:24:08.625Z,8.70
2018-03-19T05:29:09.971Z,5.73
2018-03-19T05:34:11.363Z,7.67
2018-03-19T05:39:12.707Z,4.37
2018-03-19T05:44:15.015Z,3.90
2018-03-19T05:49:16.438Z,4.57
2018-03-19T05:54:17.786Z,5.93
2018-03-19T05:59:19.129Z,7.77
2018-03-19T06:04:20.451Z,5.37
2018-03-19T06:09:21.806Z,6.00
2018-03-19T06:14:23.129Z,5.07
2018-03-19T06:19:25.235Z,3.70
2018-03-19T06:24:27.344Z,4.47
2018-03-19T06:29:28.697Z,3.37
2018-03-19T06:34:30.051Z,3.43
2018-03-19T06:39:31.419Z,6.37
2018-03-19T06:44:33.727Z,5.63
2018-03-19T06:49:35.884Z,5.53
2018-03-19T06:54:37.266Z,6.60
2018-03-19T06:59:38.742Z,8.57
2018-03-19T07:04:40.091Z,3.33
2018-03-19T07:09:41.492Z,2.73
2018-03-19T07:14:43.583Z,5.97
2018-03-19T07:19:45.911Z,3.10
2018-03-19T07:24:47.955Z,9.70
2018-03-19T07:29:49.310Z,6.67
2018-03-19T07:34:51.388Z,12.40
2018-03-19T07:39:52.740Z,5.67
2018-03-19T07:44:54.109Z,6.17
2018-03-19T07:49:55.455Z,9.93
2018-03-19T07:54:56.811Z,5.47
2018-03-19T07:59:58.184Z,8.20
2018-03-19T08:04:59.591Z,7.23
2018-03-19T08:10:00.973Z,6.73
2018-03-19T08:15:02.403Z,4.97
2018-03-19T08:20:03.799Z,6.63
2018-03-19T08:25:05.272Z,6.70
2018-03-19T08:30:06.679Z,7.60
2018-03-19T08:35:08.056Z,7.30
2018-03-19T08:40:09.420Z,7.03
2018-03-19T08:45:10.771Z,6.40
2018-03-19T08:50:12.137Z,7.13
2018-03-19T08:55:13.456Z,4.37
2018-03-19T09:00:15.593Z,7.00
2018-03-19T09:05:16.958Z,4.13
2018-03-19T09:10:19.035Z,4.73
2018-03-19T09:15:20.441Z,7.30
2018-03-19T09:20:21.784Z,4.27
2018-03-19T09:25:23.152Z,7.43
2018-03-19T09:30:24.497Z,3.47
2018-03-19T09:35:25.827Z,5.43
2018-03-19T09:40:27.165Z,7.30
2018-03-19T09:45:28.548Z,6.97
2018-03-19T09:50:29.940Z,5.23
2018-03-19T09:55:31.305Z,7.03
2018-03-19T10:00:32.683Z,8.60
2018-03-19T10:05:34.058Z,18.23
2018-03-19T10:10:35.476Z,5.87
2018-03-19T10:15:36.816Z,8.33
2018-03-19T10:20:38.210Z,4.83
2018-03-19T10:25:39.587Z,10.40
2018-03-19T10:30:40.964Z,3.90
2018-03-19T10:35:42.370Z,4.00
2018-03-19T10:40:43.709Z,6.17
2018-03-19T10:45:45.085Z,7.43
2018-03-19T10:50:47.184Z,15.20
2018-03-19T10:55:48.526Z,4.90
2018-03-19T11:00:49.875Z,4.13
2018-03-19T11:05:55.188Z,5.67
2018-03-19T11:10:56.540Z,5.10
2018-03-19T11:15:58.607Z,5.83
2018-03-19T11:20:59.951Z,3.13
2018-03-19T11:26:01.309Z,3.90
2018-03-19T11:31:03.459Z,4.33
2018-03-19T11:36:04.892Z,5.00
2018-03-19T11:41:06.368Z,8.17
2018-03-19T11:46:07.699Z,4.07
2018-03-19T11:51:09.780Z,4.60
2018-03-19T11:56:12.094Z,4.17
2018-03-19T12:01:14.143Z,2.90
2018-03-19T12:06:15.532Z,3.40
2018-03-19T12:11:16.909Z,4.33
2018-03-19T12:16:19.016Z,3.40
2018-03-19T12:21:21.152Z,4.93
2018-03-19T12:26:22.622Z,5.60
2018-03-19T12:31:24.012Z,4.60
2018-03-19T12:36:26.201Z,3.93
2018-03-19T12:41:27.550Z,4.80
2018-03-19T12:46:28.958Z,3.30
2018-03-19T12:51:31.228Z,4.50
2018-03-19T12:56:32.611Z,3.23
2018-03-19T13:01:34.729Z,7.20
2018-03-19T13:06:37.023Z,7.33
2018-03-19T13:11:39.205Z,4.77
2018-03-19T13:16:40.999Z,3.07
2018-03-19T13:21:42.426Z,3.07
2018-03-19T13:26:44.526Z,3.03
2018-03-19T13:31:45.875Z,3.50
2018-03-19T13:36:47.193Z,3.47
2018-03-19T13:41:48.560Z,4.77
2018-03-19T13:46:49.939Z,3.00
2018-03-19T13:51:51.305Z,7.70
2018-03-19T13:56:52.663Z,6.40
2018-03-19T14:01:53.996Z,3.30
2018-03-19T14:06:55.360Z,6.57
2018-03-19T14:11:57.559Z,2.90
2018-03-19T14:16:59.676Z,3.97
2018-03-19T14:22:01.069Z,3.93
2018-03-19T14:27:03.236Z,3.53
2018-03-19T14:32:04.623Z,5.27
2018-03-19T14:37:05.967Z,8.83
2018-03-19T14:42:09.164Z,3.80
2018-03-19T14:47:13.120Z,2.50
2018-03-19T14:52:14.524Z,2.67
2018-03-19T14:57:16.654Z,8.20
2018-03-19T15:02:18.008Z,3.70
2018-03-19T15:07:19.341Z,2.20
2018-03-19T15:12:20.760Z,4.40
2018-03-19T15:17:22.445Z,2.97
2018-03-19T15:22:23.841Z,4.90
2018-03-19T15:27:25.225Z,6.97
2018-03-19T15:32:26.583Z,2.60
2018-03-19T15:37:27.955Z,2.10
2018-03-19T15:42:29.289Z,2.67
2018-03-19T15:47:30.683Z,4.63
2018-03-19T15:52:32.042Z,3.33
2018-03-19T15:57:34.333Z,3.03
2018-03-19T16:02:35.703Z,2.33
2018-03-19T16:07:37.044Z,2.30
2018-03-19T16:12:38.425Z,3.57
2018-03-19T16:17:40.631Z,3.53
2018-03-19T16:22:42.060Z,3.27
2018-03-19T16:27:43.441Z,5.03
2018-03-19T16:32:44.838Z,14.17
2018-03-19T16:37:46.208Z,7.33
2018-03-19T16:42:47.592Z,16.63
2018-03-19T16:47:48.944Z,6.80
2018-03-19T16:52:50.497Z,9.57
2018-03-19T16:57:51.847Z,9.30
2018-03-19T17:02:53.717Z,9.70
2018-03-19T17:07:55.114Z,10.83
2018-03-19T17:12:56.576Z,6.63
2018-03-19T17:17:57.960Z,10.17
2018-03-19T17:22:59.355Z,14.53
2018-03-19T17:28:00.747Z,33.20
2018-03-19T17:33:02.131Z,38.87
2018-03-19T17:38:03.592Z,10.60
2018-03-19T17:43:04.972Z,7.10
2018-03-19T17:48:06.422Z,9.00
2018-03-19T17:53:07.825Z,10.23
2018-03-19T17:58:10.196Z,15.67
2018-03-19T18:03:12.387Z,14.67
2018-03-19T18:08:13.821Z,10.63
2018-03-19T18:13:15.220Z,11.27
2018-03-19T18:18:16.701Z,11.60
2018-03-19T18:23:18.081Z,14.10
2018-03-19T18:28:19.487Z,8.70
2018-03-19T18:33:20.878Z,9.17
2018-03-19T18:38:22.261Z,10.40
2018-03-19T18:43:23.580Z,8.57
2018-03-19T18:48:25.978Z,12.03
2018-03-19T18:53:27.372Z,8.67
2018-03-19T18:58:28.752Z,11.17
2018-03-19T19:03:30.118Z,9.27
2018-03-19T19:08:31.594Z,9.67
2018-03-19T19:13:33.940Z,12.57
2018-03-19T19:18:35.307Z,11.93
2018-03-19T19:23:38.903Z,12.60
2018-03-19T19:28:40.248Z,46.70
2018-03-19T19:33:41.685Z,28.73
2018-03-19T19:38:43.097Z,18.47
2018-03-19T19:43:44.527Z,11.10
2018-03-19T19:48:46.079Z,23.03
2018-03-19T19:53:47.568Z,14.37
2018-03-19T19:58:48.932Z,8.67
2018-03-19T20:03:51.061Z,33.17
2018-03-19T20:08:53.338Z,40.90
2018-03-19T20:13:54.794Z,43.80
2018-03-19T20:18:56.498Z,47.03
2018-03-19T20:23:58.688Z,40.63
2018-03-19T20:29:00.131Z,27.50
2018-03-19T20:34:01.657Z,11.00
2018-03-19T20:39:03.287Z,7.20
2018-03-19T20:44:04.772Z,6.93
2018-03-19T20:49:07.046Z,4.80
2018-03-19T20:54:08.598Z,8.50
2018-03-19T20:59:11.015Z,7.20
2018-03-19T21:04:12.713Z,7.20
2018-03-19T21:09:14.099Z,5.77
2018-03-19T21:14:16.262Z,5.47
2018-03-19T21:19:17.601Z,15.23
2018-03-19T21:24:18.967Z,36.37
2018-03-19T21:29:20.352Z,13.60
2018-03-19T21:34:21.719Z,9.83
2018-03-19T21:39:23.181Z,17.13
2018-03-19T21:44:25.384Z,13.17
2018-03-19T21:49:26.888Z,12.70
2018-03-19T21:54:29.179Z,12.67
2018-03-19T21:59:30.686Z,7.70
2018-03-19T22:04:32.156Z,10.87
2018-03-19T22:09:33.577Z,12.10
2018-03-19T22:14:35.013Z,10.80
2018-03-19T22:19:36.437Z,12.37
2018-03-19T22:24:38.653Z,22.13
2018-03-19T22:29:40.137Z,10.20
2018-03-19T22:34:42.336Z,15.27
2018-03-19T22:39:44.087Z,9.13
2018-03-19T22:44:45.660Z,8.60
2018-03-19T22:49:47.054Z,8.50
2018-03-19T22:54:48.396Z,10.40
2018-03-19T22:59:49.796Z,8.00
2018-03-19T23:10:41.536Z,8.50
2018-03-19T23:15:42.895Z,9.33
2018-03-19T23:20:44.295Z,12.00
2018-03-19T23:25:45.809Z,8.40
2018-03-19T23:30:47.341Z,7.67
2018-03-19T23:35:48.768Z,13.60
2018-03-19T23:40:50.420Z,8.93
2018-03-19T23:45:51.895Z,9.60
2018-03-19T23:50:54.190Z,9.90
2018-03-19T23:55:55.775Z,12.47
